Capitol Logistics 459


KRFD
Chicago/Rockford International Airport
Rockford, Illinois, US
KEWR
Newark Liberty International Airport
Newark, New Jersey, US

Route Details

Aircraft Information
Primary: Boeing 737-800BCF
Backup: Not Available
Route Data
Distance: 679nm
Sched. Duration: 1h 43m
Avg. Duration: 1h 88m (+45m)
Times Flown: 6
Recm'd Route: OBK SAMPL ADIME NELLS KEEHO J584 SLT FQM FQM3
Planned Altitude: 37,000ft
Origin Wx: KRFD 262054Z 36016KT 10SM FEW017 BKN140 BKN250 M02/M08 A3003 RMK AO2 SNE09 SLP179 P0000 60000 T10221078 53017
Dest. Wx: KEWR 262051Z 07007KT 2SM -DZ BR BKN007 OVC011 01/00 A2988 RMK AO2 SLP116 P0001 60005 T00110000 56024
Notes:

Financial History
Total Freight: 188,496lbs
Average Load: 31,416lbs/flt
Fuel Used: 69,944lbs
Avg. Fuel Used: 11,657lbs/flt
Fuel Expense: $50,922
Avg. Fuel Expense: $8,487
Avg. Fuel Cost: $0.72/lbs
Total Gross Income: $255,240
Pilot Pay: $894
Total Expenses: $27,878
Total Revenue: $174,513
Average Revenue: $42,540.08